Time;durP1;ratioP1;P1;durP2;ratioP2;P2;SDS_P1;SDS_P2;PMS_P1;PMS_P2;Temp;Humidity;BMP_temperature;BMP_pressure;BME280_temperature;BME280_humidity;BME280_pressure;Samples;Min_cycle;Max_cycle;Signal;HPM_P1;HPM_P2
2021/09/24 00:00:26;;;;;;;19.17;4.17;;;14.00;99.90;;;;;;5034234;28;20485;-77
2021/09/24 00:02:54;;;;;;;15.03;4.37;;;14.00;99.90;;;;;;5034090;28;20492;-77
2021/09/24 00:05:21;;;;;;;10.17;2.90;;;14.00;99.90;;;;;;5033083;28;20875;-77
2021/09/24 00:07:48;;;;;;;11.73;3.73;;;13.90;99.90;;;;;;5029731;28;20865;-77
2021/09/24 00:10:17;;;;;;;15.83;4.57;;;13.90;99.90;;;;;;5033932;28;20904;-77
2021/09/24 00:12:43;;;;;;;18.80;4.30;;;13.90;99.90;;;;;;5034051;28;20540;-77
2021/09/24 00:15:13;;;;;;;12.67;3.30;;;13.80;99.90;;;;;;5033772;28;20861;-77
2021/09/24 00:17:40;;;;;;;14.97;2.90;;;13.80;99.90;;;;;;5033838;28;21008;-77
2021/09/24 00:20:09;;;;;;;11.20;3.53;;;13.70;99.90;;;;;;5033465;28;20525;-77
2021/09/24 00:22:37;;;;;;;18.63;3.93;;;13.70;99.90;;;;;;5033830;28;20499;-77
2021/09/24 00:25:04;;;;;;;13.00;3.67;;;13.70;99.90;;;;;;5033620;28;20605;-77
2021/09/24 00:27:31;;;;;;;18.40;4.53;;;13.70;99.90;;;;;;5033680;28;20515;-77
2021/09/24 00:29:58;;;;;;;21.70;4.13;;;13.70;99.90;;;;;;5033278;28;20488;-77
2021/09/24 00:32:24;;;;;;;15.07;4.87;;;13.70;99.90;;;;;;5033426;28;20537;-78
2021/09/24 00:34:51;;;;;;;21.50;3.90;;;13.60;99.90;;;;;;5033664;28;20873;-78
2021/09/24 00:37:19;;;;;;;17.03;4.23;;;13.60;99.90;;;;;;5033529;28;20481;-78
2021/09/24 00:39:45;;;;;;;12.53;3.90;;;13.70;99.90;;;;;;5032011;28;20990;-77
2021/09/24 00:42:12;;;;;;;12.40;3.70;;;13.70;99.90;;;;;;5033275;28;20536;-78
2021/09/24 00:44:44;;;;;;;15.50;4.10;;;13.70;99.90;;;;;;5033074;28;21147;-77
2021/09/24 00:47:11;;;;;;;20.87;5.00;;;13.60;99.90;;;;;;5033112;28;20876;-77
2021/09/24 00:49:38;;;;;;;24.20;3.43;;;13.50;99.90;;;;;;5033260;28;20469;-78
2021/09/24 00:52:05;;;;;;;21.43;4.03;;;13.50;99.90;;;;;;5033132;28;20755;-77
2021/09/24 00:54:33;;;;;;;14.67;3.80;;;13.50;99.90;;;;;;5033013;28;20532;-78
2021/09/24 00:57:01;;;;;;;18.43;5.33;;;13.50;99.90;;;;;;5033059;28;20535;-78
2021/09/24 00:59:28;;;;;;;21.47;4.77;;;13.50;99.90;;;;;;5032960;28;20894;-78
2021/09/24 01:01:55;;;;;;;13.83;3.87;;;13.50;99.90;;;;;;5032498;28;20843;-78
2021/09/24 01:04:22;;;;;;;21.13;5.43;;;13.50;99.90;;;;;;5032959;28;20556;-78
2021/09/24 01:06:49;;;;;;;21.87;4.53;;;13.50;99.90;;;;;;5027804;28;20446;-78
2021/09/24 01:09:16;;;;;;;14.93;4.17;;;13.50;99.90;;;;;;5032722;28;21027;-78
2021/09/24 01:11:44;;;;;;;19.90;3.73;;;13.50;99.90;;;;;;5033080;28;20560;-78
2021/09/24 01:14:11;;;;;;;24.70;4.33;;;13.50;99.90;;;;;;5033204;28;20544;-78
2021/09/24 01:16:38;;;;;;;15.63;3.70;;;13.50;99.90;;;;;;5032936;28;20489;-78
2021/09/24 01:19:05;;;;;;;18.30;3.83;;;13.60;99.90;;;;;;5033135;28;20981;-78
2021/09/24 01:21:34;;;;;;;15.40;3.93;;;13.70;99.90;;;;;;5033105;28;20535;-78
2021/09/24 01:24:01;;;;;;;13.70;3.83;;;13.70;99.90;;;;;;5032845;28;20809;-78
2021/09/24 01:26:28;;;;;;;16.67;3.80;;;13.80;99.90;;;;;;5032775;28;20492;-79
2021/09/24 01:28:56;;;;;;;16.17;4.00;;;13.80;99.90;;;;;;5032641;28;21028;-78
2021/09/24 01:31:23;;;;;;;18.47;4.93;;;13.90;99.90;;;;;;5032757;28;20480;-78
2021/09/24 01:33:51;;;;;;;18.10;4.30;;;13.90;99.90;;;;;;5032804;28;20540;-78
2021/09/24 01:36:18;;;;;;;18.30;3.70;;;14.00;99.90;;;;;;5032599;28;20441;-78
2021/09/24 01:38:46;;;;;;;16.87;3.07;;;14.10;99.90;;;;;;5032628;28;20481;-78
2021/09/24 01:41:12;;;;;;;19.63;4.50;;;14.10;99.90;;;;;;5032300;28;20484;-78
2021/09/24 01:43:39;;;;;;;15.17;3.70;;;14.20;99.90;;;;;;5032284;28;20465;-78
2021/09/24 01:46:06;;;;;;;15.17;3.40;;;14.20;99.90;;;;;;5032256;28;20508;-78
2021/09/24 01:48:33;;;;;;;16.47;3.60;;;14.20;99.90;;;;;;5032724;28;20528;-78
2021/09/24 01:50:59;;;;;;;14.10;2.97;;;14.30;99.90;;;;;;5032305;28;20572;-79
2021/09/24 01:53:26;;;;;;;10.17;3.37;;;14.30;99.90;;;;;;5032548;28;20884;-78
2021/09/24 01:55:54;;;;;;;16.20;3.90;;;14.30;99.90;;;;;;5032336;28;20485;-79
2021/09/24 01:58:20;;;;;;;23.30;4.90;;;14.30;99.90;;;;;;5016069;28;20446;-79
2021/09/24 02:00:47;;;;;;;15.43;3.40;;;14.40;99.90;;;;;;5032486;28;20544;-79
2021/09/24 02:03:13;;;;;;;15.83;4.23;;;14.40;99.90;;;;;;5032212;28;20471;-79
2021/09/24 02:05:40;;;;;;;13.87;3.03;;;14.40;99.90;;;;;;5029036;28;21008;-78
2021/09/24 02:08:07;;;;;;;11.90;3.90;;;14.40;99.90;;;;;;5030431;28;20472;-79
2021/09/24 02:10:33;;;;;;;14.07;3.63;;;14.40;99.90;;;;;;5032045;28;20492;-79
2021/09/24 02:13:02;;;;;;;18.93;3.37;;;14.40;99.90;;;;;;5032234;28;20477;-78
2021/09/24 02:15:28;;;;;;;8.77;2.80;;;14.40;99.90;;;;;;5034894;28;20966;-78
2021/09/24 02:17:55;;;;;;;17.13;3.67;;;14.30;99.90;;;;;;5036001;28;20997;-79
2021/09/24 02:20:21;;;;;;;16.13;2.90;;;14.30;99.90;;;;;;5036100;28;20476;-78
2021/09/24 02:22:48;;;;;;;15.50;3.40;;;14.30;99.90;;;;;;5035935;28;20587;-78
2021/09/24 02:25:15;;;;;;;17.67;3.43;;;14.30;99.90;;;;;;5035720;28;21016;-78
2021/09/24 02:27:41;;;;;;;14.50;2.50;;;14.40;99.90;;;;;;5035875;28;20481;-78
2021/09/24 02:30:10;;;;;;;19.77;5.10;;;14.40;99.90;;;;;;5035666;28;20972;-78
2021/09/24 02:32:37;;;;;;;13.17;3.37;;;14.40;99.90;;;;;;5035541;28;20559;-79
2021/09/24 02:35:04;;;;;;;27.47;4.23;;;14.40;99.90;;;;;;5035372;28;21004;-78
2021/09/24 02:37:31;;;;;;;21.30;4.43;;;14.40;99.90;;;;;;5035614;28;20477;-78
2021/09/24 02:39:57;;;;;;;14.50;3.57;;;14.40;99.90;;;;;;5035735;28;20989;-78
2021/09/24 02:42:24;;;;;;;18.40;3.87;;;14.40;99.90;;;;;;5035558;28;20535;-79
2021/09/24 02:44:50;;;;;;;15.47;3.70;;;14.40;99.90;;;;;;5035425;28;20564;-78
2021/09/24 02:47:18;;;;;;;13.47;3.20;;;14.40;99.90;;;;;;5035330;28;21020;-78
2021/09/24 02:49:47;;;;;;;21.80;4.53;;;14.40;99.90;;;;;;5035495;28;20453;-78
2021/09/24 02:52:14;;;;;;;21.57;3.20;;;14.40;99.90;;;;;;5035120;28;20477;-78
2021/09/24 02:54:41;;;;;;;12.67;3.13;;;14.40;99.90;;;;;;5035511;28;20528;-79
2021/09/24 02:57:08;;;;;;;15.37;3.10;;;14.40;99.90;;;;;;5035195;28;20473;-78
2021/09/24 02:59:34;;;;;;;7.97;2.87;;;14.40;99.90;;;;;;5035325;28;20877;-79
2021/09/24 03:02:01;;;;;;;13.43;2.97;;;14.40;99.90;;;;;;5035041;28;20531;-79
2021/09/24 03:04:29;;;;;;;13.63;3.37;;;14.40;99.90;;;;;;5035040;28;20563;-79
2021/09/24 03:06:55;;;;;;;15.30;3.40;;;14.40;99.90;;;;;;5029840;28;20541;-78
2021/09/24 03:09:22;;;;;;;17.50;3.40;;;14.30;99.90;;;;;;5035192;28;20532;-78
2021/09/24 03:11:49;;;;;;;14.40;4.20;;;14.30;99.90;;;;;;5035039;28;20577;-78
2021/09/24 03:14:15;;;;;;;16.27;3.30;;;14.30;99.90;;;;;;5034897;28;20450;-78
2021/09/24 03:16:42;;;;;;;13.73;3.70;;;14.30;99.90;;;;;;5035047;28;20470;-78
2021/09/24 03:19:09;;;;;;;24.53;4.27;;;14.30;99.90;;;;;;5034733;28;20445;-78
2021/09/24 03:21:37;;;;;;;21.33;4.27;;;14.30;99.90;;;;;;5035107;28;20472;-78
2021/09/24 03:24:04;;;;;;;14.43;4.40;;;14.30;99.90;;;;;;5034718;28;20449;-78
2021/09/24 03:26:32;;;;;;;19.80;5.27;;;14.30;99.90;;;;;;5034347;28;20965;-78
2021/09/24 03:28:58;;;;;;;13.60;6.17;;;14.30;99.90;;;;;;5034812;28;20536;-78
2021/09/24 03:31:25;;;;;;;14.67;3.53;;;14.30;99.90;;;;;;5034517;28;20889;-78
2021/09/24 03:33:51;;;;;;;15.57;3.60;;;14.30;99.90;;;;;;5034446;28;20540;-78
2021/09/24 03:36:18;;;;;;;17.00;4.10;;;14.30;99.90;;;;;;5034741;28;20865;-79
2021/09/24 03:38:46;;;;;;;16.40;3.33;;;14.40;99.90;;;;;;5034881;28;20481;-79
2021/09/24 03:41:13;;;;;;;14.60;3.07;;;14.40;99.90;;;;;;5034549;28;20481;-79
2021/09/24 03:43:39;;;;;;;19.70;4.13;;;14.40;99.90;;;;;;5034504;28;20536;-79
2021/09/24 03:46:06;;;;;;;18.90;4.97;;;14.30;99.90;;;;;;5034085;28;20481;-79
2021/09/24 03:48:32;;;;;;;15.83;3.73;;;14.30;99.90;;;;;;5034266;28;20532;-79
2021/09/24 03:50:59;;;;;;;25.17;4.83;;;14.30;99.90;;;;;;5033906;28;20496;-79
2021/09/24 03:53:26;;;;;;;9.70;3.07;;;14.30;99.90;;;;;;5034383;28;20507;-79
2021/09/24 03:55:54;;;;;;;14.20;3.70;;;14.30;99.90;;;;;;5034336;28;20560;-78
2021/09/24 03:58:20;;;;;;;10.50;3.40;;;14.30;99.90;;;;;;5017854;28;20523;-79
2021/09/24 04:00:47;;;;;;;17.00;4.17;;;14.30;99.90;;;;;;5034077;28;20532;-78
2021/09/24 04:03:14;;;;;;;14.63;3.00;;;14.30;99.90;;;;;;5033786;28;20453;-78
2021/09/24 04:05:40;;;;;;;14.43;3.73;;;14.30;99.90;;;;;;5030756;28;20450;-78
2021/09/24 04:08:07;;;;;;;15.30;5.10;;;14.30;99.90;;;;;;5032251;28;20548;-78
2021/09/24 04:10:33;;;;;;;17.93;3.40;;;14.30;99.90;;;;;;5033954;28;20474;-78
2021/09/24 04:13:01;;;;;;;17.27;3.90;;;14.20;99.90;;;;;;5033591;28;20534;-78
2021/09/24 04:15:28;;;;;;;15.30;3.33;;;14.30;99.90;;;;;;5033781;28;20528;-78
2021/09/24 04:17:54;;;;;;;20.43;4.07;;;14.30;99.90;;;;;;5033871;28;20449;-78
2021/09/24 04:20:21;;;;;;;18.30;4.80;;;14.20;99.90;;;;;;5033883;28;20484;-78
2021/09/24 04:22:48;;;;;;;19.40;3.40;;;14.20;99.90;;;;;;5033649;28;20484;-79
2021/09/24 04:25:14;;;;;;;16.00;5.00;;;14.20;99.90;;;;;;5033628;28;20480;-78
2021/09/24 04:27:41;;;;;;;23.10;3.97;;;14.20;99.90;;;;;;5033507;28;20535;-79
2021/09/24 04:30:10;;;;;;;17.40;4.23;;;14.20;99.90;;;;;;5033425;28;20542;-79
2021/09/24 04:32:37;;;;;;;14.43;3.50;;;14.20;99.90;;;;;;5033547;28;20892;-78
2021/09/24 04:35:05;;;;;;;12.77;3.60;;;14.10;99.90;;;;;;5033405;28;20499;-78
2021/09/24 04:37:31;;;;;;;14.63;5.03;;;14.00;99.90;;;;;;5032677;28;20492;-78
2021/09/24 04:40:01;;;;;;;15.20;4.60;;;14.00;99.90;;;;;;5033321;28;20489;-78
2021/09/24 04:42:28;;;;;;;18.90;4.07;;;14.10;99.90;;;;;;5033150;28;20844;-78
2021/09/24 04:44:55;;;;;;;15.93;4.13;;;14.10;99.90;;;;;;5033210;28;20478;-78
2021/09/24 04:47:23;;;;;;;14.87;3.63;;;14.20;99.90;;;;;;5033096;28;20964;-78
2021/09/24 04:49:49;;;;;;;15.30;4.00;;;14.20;99.90;;;;;;5033131;28;20475;-78
2021/09/24 04:52:16;;;;;;;16.23;3.83;;;14.20;99.90;;;;;;5032963;28;20473;-78
2021/09/24 04:54:42;;;;;;;26.70;3.77;;;14.20;99.90;;;;;;5032023;28;20933;-79
2021/09/24 04:57:09;;;;;;;17.50;4.00;;;14.20;99.90;;;;;;5032443;28;20457;-79
2021/09/24 04:59:36;;;;;;;11.73;3.40;;;14.20;99.90;;;;;;5032793;28;20445;-78
2021/09/24 05:02:03;;;;;;;10.97;4.37;;;14.10;99.90;;;;;;5032313;28;20786;-79
2021/09/24 05:04:31;;;;;;;15.50;3.67;;;14.20;99.90;;;;;;5032375;28;20511;-79
2021/09/24 05:06:57;;;;;;;16.17;3.50;;;14.20;99.90;;;;;;5030729;28;20457;-80
2021/09/24 05:09:24;;;;;;;7.33;3.03;;;14.20;99.90;;;;;;5032429;28;20487;-79
2021/09/24 05:11:50;;;;;;;22.20;4.40;;;14.20;99.90;;;;;;5040724;28;20500;-79
2021/09/24 05:14:17;;;;;;;22.27;3.73;;;14.20;99.90;;;;;;5041021;28;20535;-80
2021/09/24 05:16:44;;;;;;;15.53;3.73;;;14.20;99.90;;;;;;5042427;28;20529;-79
2021/09/24 05:19:10;;;;;;;20.20;4.30;;;14.20;99.90;;;;;;5034924;28;20536;-79
2021/09/24 05:21:38;;;;;;;16.93;4.20;;;14.20;99.90;;;;;;5032321;28;20480;-79
2021/09/24 05:24:05;;;;;;;15.20;3.33;;;14.20;99.90;;;;;;5031962;28;20532;-79
2021/09/24 05:26:32;;;;;;;21.63;4.30;;;14.20;99.90;;;;;;5032038;28;20905;-78
2021/09/24 05:28:58;;;;;;;13.23;4.20;;;14.30;99.90;;;;;;5032238;28;20491;-78
2021/09/24 05:31:25;;;;;;;15.57;3.93;;;14.30;99.90;;;;;;5032511;28;20538;-79
2021/09/24 05:33:52;;;;;;;18.23;4.10;;;14.20;99.90;;;;;;5032412;28;20516;-78
2021/09/24 05:36:19;;;;;;;18.00;4.20;;;14.20;99.90;;;;;;5032338;28;20480;-81
2021/09/24 05:38:46;;;;;;;13.50;4.60;;;14.10;99.90;;;;;;5032347;28;20531;-79
2021/09/24 05:41:15;;;;;;;22.10;4.63;;;14.00;99.90;;;;;;5032565;28;20540;-82
2021/09/24 05:43:41;;;;;;;19.17;5.30;;;14.10;99.90;;;;;;5031907;28;20536;-79
2021/09/24 05:46:09;;;;;;;14.07;3.20;;;14.10;99.90;;;;;;5029846;28;20481;-79
2021/09/24 05:48:36;;;;;;;14.60;3.90;;;14.10;99.90;;;;;;5033279;28;20477;-79
2021/09/24 05:51:03;;;;;;;22.20;4.20;;;14.20;99.90;;;;;;5036489;28;20544;-79
2021/09/24 05:53:29;;;;;;;12.60;4.30;;;14.20;99.90;;;;;;5036243;28;20516;-78
2021/09/24 05:55:57;;;;;;;8.33;3.17;;;14.30;99.90;;;;;;5036228;28;20553;-78
2021/09/24 05:58:24;;;;;;;16.10;3.60;;;14.40;99.90;;;;;;5033403;28;20473;-78
2021/09/24 06:00:51;;;;;;;20.63;4.63;;;14.30;99.90;;;;;;5036054;28;20479;-77
2021/09/24 06:03:17;;;;;;;16.43;4.40;;;14.40;99.90;;;;;;5036211;28;20563;-78
2021/09/24 06:05:44;;;;;;;17.67;4.30;;;14.40;99.90;;;;;;5031988;28;20488;-78
2021/09/24 06:08:13;;;;;;;21.60;4.43;;;14.40;99.90;;;;;;5035052;28;20437;-78
2021/09/24 06:10:40;;;;;;;20.10;5.37;;;14.40;99.90;;;;;;5036206;28;20986;-79
2021/09/24 06:13:08;;;;;;;18.07;3.70;;;14.40;99.90;;;;;;5036006;28;20480;-78
2021/09/24 06:15:36;;;;;;;13.13;3.07;;;14.40;99.90;;;;;;5036134;28;20971;-78
2021/09/24 06:18:04;;;;;;;23.10;3.93;;;14.50;99.90;;;;;;5035827;28;20484;-78
2021/09/24 06:20:31;;;;;;;20.07;3.77;;;14.50;99.90;;;;;;5035924;28;20543;-78
2021/09/24 06:22:57;;;;;;;15.43;3.10;;;14.60;99.90;;;;;;5036064;28;20536;-78
2021/09/24 06:25:24;;;;;;;13.10;4.33;;;14.60;99.90;;;;;;5036220;28;20485;-78
2021/09/24 06:27:51;;;;;;;19.40;4.03;;;14.60;99.90;;;;;;5035938;28;20540;-78
2021/09/24 06:30:21;;;;;;;20.10;4.33;;;14.60;99.90;;;;;;5035761;28;20897;-78
2021/09/24 06:32:48;;;;;;;15.23;3.83;;;14.60;99.90;;;;;;5035873;28;20559;-78
2021/09/24 06:35:15;;;;;;;26.40;5.20;;;14.60;99.90;;;;;;5035940;28;20449;-78
2021/09/24 06:37:42;;;;;;;11.80;3.37;;;14.60;99.90;;;;;;5035819;28;20532;-78
2021/09/24 06:40:10;;;;;;;36.63;4.90;;;14.70;99.90;;;;;;5036228;28;20532;-78
2021/09/24 06:42:37;;;;;;;12.33;3.77;;;14.80;99.90;;;;;;5035745;28;20481;-78
2021/09/24 06:45:04;;;;;;;16.47;3.20;;;14.80;99.90;;;;;;5035260;28;20867;-78
2021/09/24 06:47:32;;;;;;;13.30;3.10;;;14.80;99.90;;;;;;5035463;28;20560;-78
2021/09/24 06:49:59;;;;;;;17.30;4.87;;;14.80;99.90;;;;;;5035548;28;20557;-78
2021/09/24 06:52:26;;;;;;;18.57;4.20;;;14.90;99.90;;;;;;5035759;28;20598;-78
2021/09/24 06:54:54;;;;;;;18.60;3.73;;;14.90;99.90;;;;;;5035249;28;20532;-78
2021/09/24 06:57:20;;;;;;;14.13;3.67;;;15.00;99.90;;;;;;5035605;28;20539;-78
2021/09/24 06:59:47;;;;;;;15.27;3.33;;;15.00;99.90;;;;;;5034681;28;20481;-78
2021/09/24 07:02:13;;;;;;;10.53;2.70;;;15.10;99.90;;;;;;5035038;28;20980;-79
2021/09/24 07:04:41;;;;;;;15.20;3.47;;;15.20;99.90;;;;;;5035260;28;20528;-79
2021/09/24 07:07:09;;;;;;;8.53;3.20;;;15.20;99.90;;;;;;5029859;28;21069;-78
2021/09/24 07:09:35;;;;;;;12.57;3.83;;;15.30;99.90;;;;;;5035142;28;20448;-78
2021/09/24 07:12:02;;;;;;;12.40;3.30;;;15.30;99.90;;;;;;5035169;28;20845;-78
2021/09/24 07:14:31;;;;;;;14.57;3.23;;;15.30;99.90;;;;;;5034929;28;20960;-78
2021/09/24 07:16:58;;;;;;;20.33;5.60;;;15.40;99.90;;;;;;5034833;28;20469;-78
2021/09/24 07:19:25;;;;;;;17.13;3.40;;;15.40;99.90;;;;;;5035044;28;20884;-78
2021/09/24 07:21:53;;;;;;;16.47;3.63;;;15.50;99.90;;;;;;5035156;28;20449;-78
2021/09/24 07:24:20;;;;;;;25.07;4.60;;;15.50;99.90;;;;;;5034711;28;20511;-78
2021/09/24 07:26:46;;;;;;;20.47;4.50;;;15.60;99.90;;;;;;5035107;28;20528;-78
2021/09/24 07:29:13;;;;;;;14.20;3.00;;;15.70;99.90;;;;;;5034575;28;21023;-78
2021/09/24 07:31:40;;;;;;;17.30;3.70;;;15.70;99.90;;;;;;5034908;28;20491;-78
2021/09/24 07:34:06;;;;;;;13.27;4.20;;;15.70;99.90;;;;;;5034518;28;20556;-78
2021/09/24 07:36:33;;;;;;;8.30;2.37;;;15.80;99.90;;;;;;5034727;28;20503;-79
2021/09/24 07:39:01;;;;;;;20.13;4.30;;;15.80;99.90;;;;;;5034470;28;20532;-78
2021/09/24 07:41:28;;;;;;;16.43;3.07;;;15.80;99.90;;;;;;5034423;28;20549;-78
2021/09/24 07:43:54;;;;;;;11.27;3.23;;;15.90;99.90;;;;;;5034575;28;20484;-78
2021/09/24 07:46:22;;;;;;;17.60;3.03;;;15.90;99.90;;;;;;5018023;28;20476;-78
2021/09/24 07:48:49;;;;;;;18.90;3.80;;;15.90;99.90;;;;;;5034361;28;20479;-78
2021/09/24 07:51:16;;;;;;;11.73;3.37;;;15.90;99.90;;;;;;5034327;28;20477;-79
2021/09/24 07:53:43;;;;;;;11.93;3.60;;;15.90;99.90;;;;;;5034106;28;20508;-78
2021/09/24 07:56:11;;;;;;;16.30;3.30;;;15.90;99.90;;;;;;5034066;28;20454;-78
2021/09/24 07:58:39;;;;;;;13.77;3.57;;;16.00;99.90;;;;;;5034294;28;20503;-78
2021/09/24 08:01:06;;;;;;;14.40;4.03;;;16.00;99.90;;;;;;5034201;28;20445;-78
2021/09/24 08:03:33;;;;;;;13.10;3.50;;;15.90;99.90;;;;;;5034226;28;20445;-78
2021/09/24 08:06:00;;;;;;;12.07;3.30;;;16.00;99.90;;;;;;5028480;28;20451;-78
2021/09/24 08:08:26;;;;;;;19.60;4.53;;;16.00;99.90;;;;;;5034056;28;20488;-78
2021/09/24 08:10:53;;;;;;;14.53;3.53;;;16.10;99.90;;;;;;5033791;28;20881;-78
2021/09/24 08:13:21;;;;;;;13.90;4.30;;;16.10;99.90;;;;;;5032884;28;20572;-78
2021/09/24 08:15:48;;;;;;;11.57;3.60;;;16.10;99.90;;;;;;5033723;28;20996;-78
2021/09/24 08:18:16;;;;;;;15.77;4.47;;;16.10;99.90;;;;;;5033778;28;20449;-78
2021/09/24 08:20:43;;;;;;;23.90;4.90;;;16.20;99.90;;;;;;5033877;28;20476;-78
2021/09/24 08:23:11;;;;;;;21.27;3.80;;;16.20;99.90;;;;;;5033654;28;20536;-78
2021/09/24 08:25:38;;;;;;;12.47;3.30;;;16.30;99.90;;;;;;5033580;28;20532;-78
2021/09/24 08:28:05;;;;;;;15.60;2.97;;;16.30;99.90;;;;;;5033698;28;20546;-78
2021/09/24 08:30:33;;;;;;;11.03;3.20;;;16.30;99.90;;;;;;5033593;28;20553;-78
2021/09/24 08:33:02;;;;;;;13.47;3.60;;;16.30;99.90;;;;;;5033364;28;20475;-80
2021/09/24 08:35:29;;;;;;;14.73;3.93;;;16.40;99.90;;;;;;5033278;28;20915;-78
2021/09/24 08:37:55;;;;;;;10.43;3.40;;;16.50;99.90;;;;;;5033282;28;20873;-79
2021/09/24 08:40:24;;;;;;;16.10;4.33;;;16.50;99.90;;;;;;5033420;28;20528;-79
2021/09/24 08:42:51;;;;;;;19.30;3.70;;;16.60;99.90;;;;;;5033474;28;20544;-79
2021/09/24 08:45:23;;;;;;;13.20;3.30;;;16.70;99.90;;;;;;5033054;28;20593;-79
2021/09/24 08:47:52;;;;;;;15.77;3.50;;;16.80;99.90;;;;;;5033342;28;20463;-79
2021/09/24 08:50:19;;;;;;;10.67;3.90;;;16.90;99.90;;;;;;5033051;28;20477;-79
2021/09/24 08:52:45;;;;;;;10.17;4.13;;;17.00;99.90;;;;;;5033078;28;20525;-79
2021/09/24 08:55:12;;;;;;;14.30;4.47;;;17.10;99.90;;;;;;5033046;28;20457;-79
2021/09/24 08:57:42;;;;;;;20.47;4.80;;;17.20;99.90;;;;;;5033097;28;20547;-76
2021/09/24 09:00:10;;;;;;;19.23;4.40;;;17.10;99.90;;;;;;5032933;28;20445;-76
2021/09/24 09:02:54;;;;;;;13.40;2.80;;;17.10;99.90;;;;;;5032974;28;20532;-76
2021/09/24 09:05:22;;;;;;;17.50;3.53;;;17.10;99.90;;;;;;5028872;28;20926;-76
2021/09/24 09:07:49;;;;;;;13.67;3.20;;;17.20;99.90;;;;;;5028860;28;20611;-76
2021/09/24 09:10:16;;;;;;;9.83;3.00;;;17.10;99.90;;;;;;5032809;28;20838;-76
2021/09/24 09:12:43;;;;;;;10.07;3.60;;;17.20;99.90;;;;;;5032782;28;20532;-76
2021/09/24 09:15:12;;;;;;;8.83;2.97;;;17.20;99.90;;;;;;5032702;28;20476;-76
2021/09/24 09:17:40;;;;;;;15.67;3.87;;;17.20;99.90;;;;;;5032751;28;20492;-76
2021/09/24 09:20:20;;;;;;;21.17;3.70;;;17.10;99.90;;;;;;5032744;28;20528;-76
2021/09/24 09:22:49;;;;;;;10.80;3.20;;;17.10;99.90;;;;;;5032450;28;20442;-76
2021/09/24 09:25:26;;;;;;;17.90;3.83;;;17.20;99.90;;;;;;5032893;28;20476;-76
2021/09/24 09:27:54;;;;;;;11.47;3.00;;;17.20;99.90;;;;;;5032554;28;20492;-76
2021/09/24 09:30:21;;;;;;;13.17;3.07;;;17.30;99.90;;;;;;5016576;28;20877;-76
2021/09/24 09:33:00;;;;;;;11.30;2.75;;;17.50;99.90;;;;;;5032710;28;20503;-76
2021/09/24 09:35:28;;;;;;;15.60;4.10;;;17.70;99.90;;;;;;5032426;28;20888;-76
2021/09/24 09:37:55;;;;;;;12.23;3.67;;;17.90;99.90;;;;;;5032590;28;20516;-76
2021/09/24 09:40:22;;;;;;;10.33;3.20;;;17.90;99.90;;;;;;5032404;28;20453;-76
2021/09/24 09:42:54;;;;;;;9.43;2.70;;;18.00;99.90;;;;;;5032517;28;20481;-76
2021/09/24 09:45:21;;;;;;;8.10;2.80;;;18.00;99.90;;;;;;5032142;28;20876;-76
2021/09/24 09:47:50;;;;;;;21.23;3.83;;;18.10;99.90;;;;;;5032461;28;20437;-76
2021/09/24 09:50:20;;;;;;;11.30;3.37;;;18.20;99.90;;;;;;5032282;28;20477;-76
2021/09/24 09:52:57;;;;;;;13.33;3.13;;;18.30;99.90;;;;;;5032384;28;20445;-76
2021/09/24 09:55:25;;;;;;;10.20;2.90;;;18.60;99.90;;;;;;5032454;28;20940;-76
2021/09/24 09:57:53;;;;;;;13.97;3.43;;;18.70;99.90;;;;;;5032591;28;20477;-75
2021/09/24 10:00:20;;;;;;;16.57;3.17;;;18.90;99.90;;;;;;5032265;28;20536;-76
2021/09/24 10:02:49;;;;;;;13.60;3.20;;;19.10;99.90;;;;;;5032433;28;20453;-76
2021/09/24 10:05:37;;;;;;;11.37;2.77;;;19.30;99.90;;;;;;5028848;28;20813;-76
2021/09/24 10:08:28;;;;;;;20.23;3.83;;;19.50;99.90;;;;;;5030097;28;21011;-76
2021/09/24 10:10:56;;;;;;;12.10;3.33;;;19.70;99.90;;;;;;5031761;28;20509;-76
2021/09/24 10:13:23;;;;;;;9.63;2.70;;;19.60;99.90;;;;;;5032058;28;20552;-76
2021/09/24 10:15:50;;;;;;;17.10;3.17;;;19.50;99.90;;;;;;5031987;28;20449;-75
2021/09/24 10:18:17;;;;;;;7.53;2.50;;;19.50;99.90;;;;;;5032418;28;20442;-76
2021/09/24 10:20:43;;;;;;;12.13;2.80;;;19.60;99.90;;;;;;5032288;28;20491;-76
2021/09/24 10:23:10;;;;;;;8.40;2.57;;;19.70;99.90;;;;;;5032225;28;20858;-76
2021/09/24 10:25:40;;;;;;;8.67;2.10;;;19.60;99.90;;;;;;5031767;28;20536;-76
2021/09/24 10:28:08;;;;;;;16.60;3.07;;;19.50;99.90;;;;;;5031958;28;20487;-75
2021/09/24 10:30:37;;;;;;;13.57;4.17;;;19.50;99.90;;;;;;5031911;28;20459;-76
2021/09/24 10:33:06;;;;;;;10.23;2.50;;;19.70;99.90;;;;;;5032042;28;20519;-76
2021/09/24 10:35:49;;;;;;;8.67;2.70;;;19.90;99.90;;;;;;5033094;28;20448;-76
2021/09/24 10:38:17;;;;;;;12.13;2.43;;;20.10;99.90;;;;;;5033213;28;20782;-76
2021/09/24 10:41:03;;;;;;;9.90;2.60;;;20.20;99.90;;;;;;5035630;28;20535;-76
2021/09/24 10:43:42;;;;;;;9.43;2.60;;;20.10;99.90;;;;;;5035812;28;20483;-76
2021/09/24 10:46:32;;;;;;;10.30;3.20;;;20.00;99.90;;;;;;5035448;28;20473;-76
2021/09/24 10:49:32;;;;;;;4.43;2.40;;;20.00;99.90;;;;;;5035594;28;20801;-76
2021/09/24 10:52:16;;;;;;;7.33;2.73;;;20.10;99.90;;;;;;5032288;28;20484;-76
2021/09/24 10:54:54;;;;;;;10.20;2.77;;;20.20;99.90;;;;;;5035490;28;20592;-76
2021/09/24 10:57:22;;;;;;;12.33;2.77;;;20.20;99.90;;;;;;5035157;28;20453;-76
2021/09/24 10:59:49;;;;;;;10.37;2.60;;;20.10;99.90;;;;;;5035639;28;20532;-76
2021/09/24 11:02:36;;;;;;;8.60;2.80;;;20.20;99.90;;;;;;5035319;28;20484;-76
2021/09/24 11:05:03;;;;;;;5.70;2.13;;;20.00;99.90;;;;;;5034906;28;20452;-76
2021/09/24 11:07:31;;;;;;;10.83;2.23;;;19.90;99.90;;;;;;5035305;28;20449;-75
2021/09/24 11:09:58;;;;;;;14.43;2.73;;;19.80;99.90;;;;;;5035041;28;20943;-76
2021/09/24 11:12:26;;;;;;;10.23;2.30;;;19.90;99.90;;;;;;5035218;28;20507;-76
2021/09/24 11:15:07;;;;;;;4.87;2.53;;;19.90;99.90;;;;;;5035085;28;21059;-76
2021/09/24 11:17:44;;;;;;;9.23;2.20;;;19.90;99.90;;;;;;5035048;28;20985;-76
2021/09/24 11:20:37;;;;;;;7.17;2.03;;;20.00;99.90;;;;;;5035000;28;20471;-76
2021/09/24 11:23:32;;;;;;;7.53;2.37;;;19.90;99.90;;;;;;4999188;28;20488;-76
2021/09/24 11:26:09;;;;;;;11.60;2.90;;;19.80;99.90;;;;;;5034713;28;21031;-76
2021/09/24 11:28:38;;;;;;;8.67;2.33;;;19.70;99.90;;;;;;5034875;28;20446;-76
2021/09/24 11:31:05;;;;;;;6.90;1.90;;;19.80;99.90;;;;;;5034780;28;20541;-76
2021/09/24 11:33:40;;;;;;;7.73;2.30;;;19.90;99.90;;;;;;5034647;28;20573;-76
2021/09/24 11:36:07;;;;;;;8.87;2.33;;;20.00;99.90;;;;;;5034529;28;20524;-76
2021/09/24 11:38:34;;;;;;;6.47;2.17;;;20.00;99.90;;;;;;5034734;28;20560;-76
2021/09/24 11:41:01;;;;;;;5.00;1.70;;;20.00;99.90;;;;;;5034504;28;20987;-76
2021/09/24 11:43:30;;;;;;;4.07;1.67;;;20.10;99.90;;;;;;5034760;28;20540;-76
2021/09/24 11:45:59;;;;;;;9.60;2.13;;;20.00;99.90;;;;;;5034058;28;20535;-75
2021/09/24 11:48:33;;;;;;;7.93;2.70;;;20.10;99.90;;;;;;5034454;28;20449;-76
2021/09/24 11:51:16;;;;;;;7.97;1.90;;;20.10;99.90;;;;;;5034662;28;20457;-76
2021/09/24 11:53:51;;;;;;;6.83;2.20;;;19.80;99.90;;;;;;5034459;28;20861;-76
2021/09/24 11:56:19;;;;;;;6.23;1.80;;;19.70;99.90;;;;;;5034510;28;20453;-76
2021/09/24 11:58:46;;;;;;;2.23;1.60;;;19.50;99.90;;;;;;5034165;28;20959;-76
2021/09/24 12:01:23;;;;;;;4.30;1.90;;;19.30;99.90;;;;;;5034544;28;20469;-76
2021/09/24 12:03:49;;;;;;;3.23;1.50;;;19.30;99.90;;;;;;5034247;28;20456;-76
2021/09/24 12:06:16;;;;;;;5.43;1.50;;;19.20;99.90;;;;;;5033941;28;20524;-76
2021/09/24 12:08:45;;;;;;;4.57;1.50;;;19.10;99.90;;;;;;5012908;28;20526;-75
2021/09/24 12:11:15;;;;;;;4.03;1.83;;;19.10;99.90;;;;;;5025093;28;20540;-75
2021/09/24 12:13:44;;;;;;;5.33;1.70;;;19.00;99.90;;;;;;5033827;28;20528;-76
2021/09/24 12:16:16;;;;;;;4.73;1.27;;;19.00;99.90;;;;;;5033997;28;20449;-76
2021/09/24 12:18:51;;;;;;;3.10;1.17;;;19.00;99.90;;;;;;5033856;28;20531;-76
2021/09/24 12:21:21;;;;;;;1.73;1.10;;;18.90;99.90;;;;;;5033939;28;20456;-76
2021/09/24 12:23:47;;;;;;;4.13;1.40;;;18.80;99.90;;;;;;5034042;28;20548;-76
2021/09/24 12:26:15;;;;;;;5.20;1.87;;;18.90;99.90;;;;;;5033560;28;20990;-75
2021/09/24 12:28:57;;;;;;;1.90;1.23;;;19.10;99.90;;;;;;5033644;28;20453;-76
2021/09/24 12:31:40;;;;;;;4.23;1.27;;;19.40;99.90;;;;;;5033819;28;20813;-76
2021/09/24 12:34:08;;;;;;;7.03;1.70;;;19.50;99.90;;;;;;5033571;28;20493;-76
2021/09/24 12:36:47;;;;;;;3.83;1.53;;;19.60;99.90;;;;;;5033561;28;20485;-76
2021/09/24 12:39:15;;;;;;;4.63;1.30;;;19.50;99.90;;;;;;5033610;28;20879;-76
2021/09/24 12:41:43;;;;;;;2.37;1.40;;;19.40;99.90;;;;;;5033402;28;20623;-76
2021/09/24 12:44:09;;;;;;;4.83;1.30;;;19.20;99.90;;;;;;5031948;28;20536;-76